Terminal Aerodrome Forecast
Issued by NWS

Current Version | Previous Version | Text Only | Print | Product List | Glossary On
Versions: 1 2 3 4 5 6 7 8 9 10 11 12 13 14 15
000
FTUS41 KBTV 272335
TAFMPV
TAF
KMPV 272335Z 2800/2824 19006KT P6SM BKN070
      TEMPO 2808/2812 3SM BR BKN030
     FM281200 21009KT P6SM VCSH BKN050
     FM282000 30012KT P6SM BKN040=

USA.gov is the U.S. government's official web portal to all federal, state and local government web resources and services.